Terminal Aerodrome Forecast
Issued by NWS Raleigh/Durham, NC

Home | Current Version | Previous Version | Text Only | Print | Product List | Glossary On
Versions: 1 2 3 4 5 6 7 8 9 10 11 12 13
000
FTUS42 KRAH 230537
TAFGSO
TAF
KGSO 230537Z 2306/2406 15009KT P6SM SCT080 OVC120
     FM230900 12008KT P6SM OVC050
     FM231200 09010KT P6SM OVC050
      TEMPO 2312/2315 P6SM -RA SCT012 OVC050
     FM231500 09015KT P6SM OVC012
      TEMPO 2315/2318 5SM -RA OVC007
     FM231800 08015G25KT 3SM -RA BR OVC007
     FM232300 09020G32KT 1 1/2SM -RA BR OVC004=

USA.gov is the U.S. government's official web portal to all federal, state and local government web resources and services.